createdAt,value
2023-03-16T00:00:41.865Z,0.00
2023-03-16T00:01:41.887Z,0.00
2023-03-16T00:02:41.846Z,0.00
2023-03-16T00:03:41.845Z,0.00
2023-03-16T00:04:41.834Z,0.00
2023-03-16T00:05:41.826Z,0.00
2023-03-16T00:06:41.807Z,0.00
2023-03-16T00:07:41.770Z,0.00
2023-03-16T00:08:41.767Z,0.00
2023-03-16T00:09:41.755Z,0.00
2023-03-16T00:10:41.741Z,0.00
2023-03-16T00:11:41.759Z,0.00
2023-03-16T00:12:41.707Z,0.00
2023-03-16T00:13:41.700Z,0.00
2023-03-16T00:14:41.695Z,0.00
2023-03-16T00:15:41.685Z,0.00
2023-03-16T00:16:41.744Z,0.00
2023-03-16T00:17:41.681Z,0.00
2023-03-16T00:18:41.636Z,0.00
2023-03-16T00:19:41.633Z,0.00
2023-03-16T00:20:41.610Z,0.00
2023-03-16T00:21:41.595Z,0.00
2023-03-16T00:22:41.583Z,0.00
2023-03-16T00:23:41.611Z,0.00
2023-03-16T00:24:41.560Z,0.00
2023-03-16T00:25:41.559Z,0.00
2023-03-16T00:26:41.535Z,0.00
2023-03-16T00:27:41.559Z,0.00
2023-03-16T00:28:41.524Z,0.00
2023-03-16T00:29:41.539Z,0.00
2023-03-16T00:30:41.502Z,0.00
2023-03-16T00:31:41.530Z,0.00
2023-03-16T00:32:41.549Z,0.00
2023-03-16T00:33:41.450Z,0.00
2023-03-16T00:34:41.434Z,0.00
2023-03-16T00:35:41.465Z,0.00
2023-03-16T00:36:41.449Z,0.00
2023-03-16T00:37:41.444Z,0.00
2023-03-16T00:38:41.384Z,0.00
2023-03-16T00:39:41.371Z,0.00
2023-03-16T00:40:41.357Z,0.00
2023-03-16T00:41:41.411Z,0.00
2023-03-16T00:42:41.338Z,0.00
2023-03-16T00:43:41.431Z,0.00
2023-03-16T00:44:41.316Z,0.00
2023-03-16T00:45:41.295Z,0.00
2023-03-16T00:46:41.285Z,0.00
2023-03-16T00:47:41.300Z,0.00
2023-03-16T00:48:41.260Z,0.00
2023-03-16T00:49:41.264Z,0.00
2023-03-16T00:50:41.224Z,0.00
2023-03-16T00:51:42.134Z,0.00
2023-03-16T00:52:41.212Z,0.00
2023-03-16T00:53:41.236Z,0.00
2023-03-16T00:54:41.177Z,0.00
2023-03-16T00:55:41.166Z,0.00
2023-03-16T00:56:41.156Z,0.00
2023-03-16T00:57:41.143Z,0.00
2023-03-16T00:58:41.136Z,0.00
2023-03-16T00:59:41.168Z,0.00
2023-03-16T01:00:41.109Z,0.00
2023-03-16T01:01:41.148Z,0.00
2023-03-16T01:02:41.094Z,0.00
2023-03-16T01:03:41.077Z,0.00
2023-03-16T01:04:41.049Z,0.00
2023-03-16T01:05:41.120Z,0.00
2023-03-16T01:06:41.044Z,0.00
2023-03-16T01:07:41.025Z,0.00
2023-03-16T01:08:41.036Z,0.00
2023-03-16T01:09:41.014Z,0.00
2023-03-16T01:10:40.989Z,0.00
2023-03-16T01:11:41.005Z,0.00
2023-03-16T01:12:40.965Z,0.00
2023-03-16T01:13:40.958Z,0.00
2023-03-16T01:14:40.937Z,0.00
2023-03-16T01:15:40.929Z,0.00
2023-03-16T01:16:41.000Z,0.00
2023-03-16T01:17:40.917Z,0.00
2023-03-16T01:18:40.881Z,0.00
2023-03-16T01:19:40.890Z,0.00
2023-03-16T01:20:40.910Z,0.00
2023-03-16T01:21:40.852Z,0.00
2023-03-16T01:22:40.832Z,0.00
2023-03-16T01:23:40.852Z,0.00
2023-03-16T01:24:40.827Z,0.00
2023-03-16T01:25:40.800Z,0.00
2023-03-16T01:26:40.789Z,0.00
2023-03-16T01:27:40.765Z,0.00
2023-03-16T01:28:40.756Z,0.00
2023-03-16T01:29:40.772Z,0.00
2023-03-16T01:30:40.811Z,0.00
2023-03-16T01:31:40.733Z,0.00
2023-03-16T01:32:40.753Z,0.00
2023-03-16T01:33:40.695Z,0.00
2023-03-16T01:34:40.696Z,0.00
2023-03-16T01:35:40.738Z,0.00
2023-03-16T01:36:40.672Z,0.00
2023-03-16T01:37:40.652Z,0.00
2023-03-16T01:38:40.638Z,0.00
2023-03-16T01:39:40.632Z,0.00
2023-03-16T01:40:40.626Z,0.00
2023-03-16T01:41:40.634Z,0.00
2023-03-16T01:42:40.586Z,0.00
2023-03-16T01:43:40.577Z,0.00
2023-03-16T01:44:40.558Z,0.00
2023-03-16T01:45:40.548Z,0.00
2023-03-16T01:46:40.545Z,0.00
2023-03-16T01:47:40.548Z,0.00
2023-03-16T01:48:40.508Z,0.00
2023-03-16T01:49:40.500Z,0.00
2023-03-16T01:50:40.485Z,0.00
2023-03-16T01:51:40.467Z,0.00
2023-03-16T01:52:40.475Z,0.00
2023-03-16T01:53:40.495Z,0.00
2023-03-16T01:54:40.434Z,0.00
2023-03-16T01:55:40.425Z,0.00
2023-03-16T01:56:40.407Z,0.00
2023-03-16T01:57:40.408Z,0.00
2023-03-16T01:58:40.391Z,0.00
2023-03-16T01:59:40.418Z,0.00
2023-03-16T02:00:40.365Z,0.00
2023-03-16T02:01:46.819Z,0.00
2023-03-16T02:02:40.362Z,0.00
2023-03-16T02:03:40.323Z,0.00
2023-03-16T02:04:40.374Z,0.00
2023-03-16T02:05:40.343Z,0.00
2023-03-16T02:06:40.296Z,0.00
2023-03-16T02:07:40.298Z,0.00
2023-03-16T02:08:40.276Z,0.00
2023-03-16T02:09:40.261Z,0.00
2023-03-16T02:10:40.272Z,0.00
2023-03-16T02:11:40.259Z,0.00
2023-03-16T02:12:40.225Z,0.00
2023-03-16T02:13:40.221Z,0.00
2023-03-16T02:14:40.225Z,0.00
2023-03-16T02:15:40.255Z,0.00
2023-03-16T02:16:40.184Z,0.00
2023-03-16T02:17:40.196Z,0.00
2023-03-16T02:18:40.160Z,0.00
2023-03-16T02:19:40.132Z,0.00
2023-03-16T02:20:40.132Z,0.00
2023-03-16T02:21:40.150Z,0.00
2023-03-16T02:22:40.104Z,0.00
2023-03-16T02:23:40.137Z,0.00
2023-03-16T02:24:40.096Z,0.00
2023-03-16T02:25:40.071Z,0.00
2023-03-16T02:26:40.058Z,0.00
2023-03-16T02:27:40.042Z,0.00
2023-03-16T02:28:40.025Z,0.00
2023-03-16T02:29:40.036Z,0.00
2023-03-16T02:30:40.088Z,0.00
2023-03-16T02:31:40.018Z,0.00
2023-03-16T02:32:40.086Z,0.00
2023-03-16T02:33:40.004Z,0.00
2023-03-16T02:34:39.968Z,0.00
2023-03-16T02:35:40.003Z,0.00
2023-03-16T02:36:39.937Z,0.00
2023-03-16T02:37:39.928Z,0.00
2023-03-16T02:38:39.900Z,0.00
2023-03-16T02:39:39.894Z,0.00
2023-03-16T02:40:39.946Z,0.00
2023-03-16T02:41:39.922Z,0.00
2023-03-16T02:42:39.897Z,0.00
2023-03-16T02:43:39.846Z,0.00
2023-03-16T02:44:39.837Z,0.00
2023-03-16T02:45:39.868Z,0.00
2023-03-16T02:46:39.837Z,0.00
2023-03-16T02:47:39.832Z,0.00
2023-03-16T02:48:39.821Z,0.00
2023-03-16T02:49:39.772Z,0.00
2023-03-16T02:50:39.763Z,0.00
2023-03-16T02:51:39.757Z,0.00
2023-03-16T02:52:39.744Z,0.00
2023-03-16T02:53:39.772Z,0.00
2023-03-16T02:54:39.728Z,0.00
2023-03-16T02:55:39.707Z,0.00
2023-03-16T02:56:39.701Z,0.00
2023-03-16T02:57:39.679Z,0.00
2023-03-16T02:58:39.662Z,0.00
2023-03-16T02:59:39.673Z,0.00
2023-03-16T03:00:39.648Z,0.00
2023-03-16T03:01:39.662Z,0.00
2023-03-16T03:02:39.637Z,0.00
2023-03-16T03:03:39.597Z,0.00
2023-03-16T03:04:39.597Z,0.00
2023-03-16T03:05:39.603Z,0.00
2023-03-16T03:06:39.584Z,0.00
2023-03-16T03:07:39.578Z,0.00
2023-03-16T03:08:39.553Z,0.00
2023-03-16T03:09:39.523Z,0.00
2023-03-16T03:10:39.517Z,0.00
2023-03-16T03:11:39.542Z,0.00
2023-03-16T03:12:39.492Z,0.00
2023-03-16T03:13:39.476Z,0.00
2023-03-16T03:14:39.459Z,0.00
2023-03-16T03:15:39.465Z,0.00
2023-03-16T03:16:39.507Z,0.00
2023-03-16T03:17:39.452Z,0.00
2023-03-16T03:18:39.412Z,0.00
2023-03-16T03:19:39.411Z,0.00
2023-03-16T03:20:39.390Z,0.00
2023-03-16T03:21:39.371Z,0.00
2023-03-16T03:22:39.373Z,0.00
2023-03-16T03:23:39.390Z,0.00
2023-03-16T03:24:39.338Z,0.00
2023-03-16T03:25:39.326Z,0.00
2023-03-16T03:26:39.385Z,0.00
2023-03-16T03:27:39.343Z,0.00
2023-03-16T03:28:39.288Z,0.00
2023-03-16T03:29:39.317Z,0.00
2023-03-16T03:30:39.288Z,0.00
2023-03-16T03:31:39.323Z,0.00
2023-03-16T03:32:39.258Z,0.00
2023-03-16T03:33:39.225Z,0.00
2023-03-16T03:34:39.217Z,0.00
2023-03-16T03:35:39.286Z,0.00
2023-03-16T03:36:39.208Z,0.00
2023-03-16T03:37:39.181Z,0.00
2023-03-16T03:38:39.189Z,0.00
2023-03-16T03:39:39.182Z,0.00
2023-03-16T03:40:39.154Z,0.00
2023-03-16T03:41:39.158Z,0.00
2023-03-16T03:42:39.149Z,0.00
2023-03-16T03:43:39.133Z,0.00
2023-03-16T03:44:39.097Z,0.00
2023-03-16T03:45:39.126Z,0.00
2023-03-16T03:46:39.242Z,0.00
2023-03-16T03:47:39.096Z,0.00
2023-03-16T03:48:39.053Z,0.00
2023-03-16T03:49:39.044Z,0.00
2023-03-16T03:50:39.034Z,0.00
2023-03-16T03:51:39.022Z,0.00
2023-03-16T03:52:39.013Z,0.00
2023-03-16T03:53:39.026Z,0.00
2023-03-16T03:54:38.985Z,0.00
2023-03-16T03:55:38.970Z,0.00
2023-03-16T03:56:38.984Z,0.00
2023-03-16T03:57:38.977Z,0.00
2023-03-16T03:58:38.925Z,0.00
2023-03-16T03:59:38.970Z,0.00
2023-03-16T04:00:38.920Z,0.00
2023-03-16T04:01:38.936Z,0.00
2023-03-16T04:02:39.055Z,0.00
2023-03-16T04:03:38.864Z,0.00
2023-03-16T04:04:38.855Z,0.00
2023-03-16T04:05:38.940Z,0.00
2023-03-16T04:06:38.845Z,0.00
2023-03-16T04:07:38.839Z,0.00
2023-03-16T04:08:38.838Z,0.00
2023-03-16T04:09:38.801Z,0.00
2023-03-16T04:10:38.808Z,0.00
2023-03-16T04:11:38.824Z,0.00
2023-03-16T04:12:38.777Z,0.00
2023-03-16T04:13:38.742Z,0.00
2023-03-16T04:14:38.730Z,0.00
2023-03-16T04:15:38.747Z,0.00
2023-03-16T04:16:38.733Z,0.00
2023-03-16T04:17:38.718Z,0.00
2023-03-16T04:18:38.899Z,0.00
2023-03-16T04:19:38.663Z,0.00
2023-03-16T04:20:38.659Z,0.00
2023-03-16T04:21:38.655Z,0.00
2023-03-16T04:22:38.629Z,0.00
2023-03-16T04:23:38.676Z,0.00
2023-03-16T04:24:38.603Z,0.00
2023-03-16T04:25:38.666Z,0.00
2023-03-16T04:26:38.584Z,0.00
2023-03-16T04:27:38.592Z,0.00
2023-03-16T04:28:38.564Z,0.00
2023-03-16T04:29:38.567Z,0.00
2023-03-16T04:30:38.610Z,0.00
2023-03-16T04:31:38.521Z,0.00
2023-03-16T04:32:38.661Z,0.00
2023-03-16T04:33:38.508Z,0.00
2023-03-16T04:34:38.523Z,0.00
2023-03-16T04:35:38.601Z,0.00
2023-03-16T04:36:38.462Z,0.00
2023-03-16T04:37:38.471Z,0.00
2023-03-16T04:38:38.447Z,0.00
2023-03-16T04:39:38.462Z,0.00
2023-03-16T04:40:38.414Z,0.00
2023-03-16T04:41:38.473Z,0.00
2023-03-16T04:42:38.395Z,0.00
2023-03-16T04:43:38.416Z,0.00
2023-03-16T04:44:38.369Z,0.00
2023-03-16T04:45:38.353Z,0.00
2023-03-16T04:46:38.503Z,0.00
2023-03-16T04:47:38.376Z,0.00
2023-03-16T04:48:38.314Z,0.00
2023-03-16T04:49:38.304Z,0.00
2023-03-16T04:50:38.320Z,0.00
2023-03-16T04:51:38.274Z,0.00
2023-03-16T04:52:38.303Z,0.00
2023-03-16T04:53:38.311Z,0.00
2023-03-16T04:54:38.249Z,0.00
2023-03-16T04:55:38.245Z,0.00
2023-03-16T04:56:38.228Z,0.00
2023-03-16T04:57:38.235Z,0.00
2023-03-16T04:58:38.218Z,0.00
2023-03-16T04:59:38.248Z,0.00
2023-03-16T05:00:38.173Z,0.00
2023-03-16T05:01:38.282Z,0.00
2023-03-16T05:02:38.166Z,4.00
2023-03-16T05:03:38.135Z,0.00
2023-03-16T05:04:38.150Z,0.00
2023-03-16T05:05:38.212Z,4.00
2023-03-16T05:06:38.092Z,0.00
2023-03-16T05:07:38.087Z,4.00
2023-03-16T05:08:38.078Z,4.00
2023-03-16T05:09:38.074Z,4.00
2023-03-16T05:10:38.052Z,4.00
2023-03-16T05:11:38.078Z,8.00
2023-03-16T05:12:38.053Z,8.00
2023-03-16T05:13:38.022Z,8.00
2023-03-16T05:14:38.014Z,12.00
2023-03-16T05:15:38.019Z,12.00
2023-03-16T05:16:37.967Z,16.00
2023-03-16T05:17:37.989Z,20.00
2023-03-16T05:18:37.975Z,28.00
2023-03-16T05:19:37.949Z,32.00
2023-03-16T05:20:37.928Z,36.00
2023-03-16T05:21:37.941Z,44.00
2023-03-16T05:22:37.917Z,48.00
2023-03-16T05:23:37.954Z,56.00
2023-03-16T05:24:37.884Z,68.00
2023-03-16T05:25:37.869Z,80.00
2023-03-16T05:26:37.844Z,88.00
2023-03-16T05:27:37.869Z,104.00
2023-03-16T05:28:37.841Z,116.00
2023-03-16T05:29:37.859Z,132.00
2023-03-16T05:30:37.834Z,148.00
2023-03-16T05:31:37.851Z,168.00
2023-03-16T05:32:37.858Z,188.00
2023-03-16T05:33:37.792Z,212.00
2023-03-16T05:34:37.761Z,240.00
2023-03-16T05:35:37.826Z,268.00
2023-03-16T05:36:37.731Z,292.00
2023-03-16T05:37:37.733Z,320.00
2023-03-16T05:38:37.725Z,352.00
2023-03-16T05:39:37.699Z,388.00
2023-03-16T05:40:37.693Z,424.00
2023-03-16T05:41:37.712Z,460.00
2023-03-16T05:42:37.660Z,500.00
2023-03-16T05:43:37.678Z,540.00
2023-03-16T05:44:37.643Z,596.00
2023-03-16T05:45:37.627Z,636.00
2023-03-16T05:46:37.738Z,688.00
2023-03-16T05:47:37.625Z,740.00
2023-03-16T05:48:37.596Z,772.00
2023-03-16T05:49:37.575Z,800.00
2023-03-16T05:50:37.564Z,828.00
2023-03-16T05:51:37.594Z,864.00
2023-03-16T05:52:37.549Z,908.00
2023-03-16T05:53:37.594Z,956.00
2023-03-16T05:54:37.525Z,1012.00
2023-03-16T05:55:37.575Z,1064.00
2023-03-16T05:56:37.487Z,1120.00
2023-03-16T05:57:37.509Z,1188.00
2023-03-16T05:58:37.501Z,1240.00
2023-03-16T05:59:37.477Z,1304.00
2023-03-16T06:00:37.454Z,1376.00
2023-03-16T06:01:37.462Z,1436.00
2023-03-16T06:02:37.454Z,1484.00
2023-03-16T06:03:37.451Z,1524.00
2023-03-16T06:04:37.398Z,1592.00
2023-03-16T06:05:37.425Z,1712.00
2023-03-16T06:06:37.361Z,1840.00
2023-03-16T06:07:37.362Z,1872.00
2023-03-16T06:08:37.364Z,1872.00
2023-03-16T06:09:37.336Z,1980.00
2023-03-16T06:10:37.324Z,2128.00
2023-03-16T06:11:37.352Z,2252.00
2023-03-16T06:12:37.334Z,2376.00
2023-03-16T06:13:37.294Z,2480.00
2023-03-16T06:14:37.272Z,2548.00
2023-03-16T06:15:37.274Z,2612.00
2023-03-16T06:16:37.336Z,2672.00
2023-03-16T06:17:37.276Z,2492.00
2023-03-16T06:18:37.220Z,2648.00
2023-03-16T06:19:37.213Z,2808.00
2023-03-16T06:20:37.201Z,2948.00
2023-03-16T06:21:37.225Z,3036.00
2023-03-16T06:22:37.180Z,3060.00
2023-03-16T06:23:37.184Z,3056.00
2023-03-16T06:24:37.152Z,3160.00
2023-03-16T06:25:39.549Z,3244.00
2023-03-16T06:26:37.150Z,3352.00
2023-03-16T06:27:37.142Z,3428.00
2023-03-16T06:28:37.123Z,3520.00
2023-03-16T06:29:37.143Z,3784.00
2023-03-16T06:30:37.065Z,4508.00
2023-03-16T06:31:37.137Z,5704.00
2023-03-16T06:32:37.097Z,6452.00
2023-03-16T06:33:37.093Z,6760.00
2023-03-16T06:34:38.251Z,6956.00
2023-03-16T06:35:37.047Z,6912.00
2023-03-16T06:36:37.002Z,6960.00
2023-03-16T06:37:37.000Z,7036.00
2023-03-16T06:38:36.979Z,7092.00
2023-03-16T06:39:36.950Z,7448.00
2023-03-16T06:40:36.938Z,7704.00
2023-03-16T06:41:36.960Z,7924.00
2023-03-16T06:42:36.962Z,8100.00
2023-03-16T06:43:36.965Z,8200.00
2023-03-16T06:44:36.896Z,8564.00
2023-03-16T06:45:36.979Z,8876.00
2023-03-16T06:46:36.897Z,9120.00
2023-03-16T06:47:36.887Z,9356.00
2023-03-16T06:48:36.851Z,9508.00
2023-03-16T06:49:36.833Z,9788.00
2023-03-16T06:50:36.826Z,9924.00
2023-03-16T06:51:36.810Z,10016.00
2023-03-16T06:52:36.808Z,9980.00
2023-03-16T06:53:36.829Z,10220.00
2023-03-16T06:54:36.767Z,9492.00
2023-03-16T06:55:36.796Z,10244.00
2023-03-16T06:56:36.745Z,10712.00
2023-03-16T06:57:36.737Z,11328.00
2023-03-16T06:58:36.722Z,12384.00
2023-03-16T06:59:36.763Z,13280.00
2023-03-16T07:00:36.698Z,13568.00
2023-03-16T07:01:36.814Z,12832.00
2023-03-16T07:02:36.690Z,12768.00
2023-03-16T07:03:36.658Z,12992.00
2023-03-16T07:04:36.697Z,12512.00
2023-03-16T07:05:36.667Z,11584.00
2023-03-16T07:06:36.610Z,12352.00
2023-03-16T07:07:36.605Z,12128.00
2023-03-16T07:08:36.598Z,11904.00
2023-03-16T07:09:39.132Z,12000.00
2023-03-16T07:10:36.551Z,11904.00
2023-03-16T07:11:36.577Z,12128.00
2023-03-16T07:12:36.570Z,12640.00
2023-03-16T07:13:36.536Z,13088.00
2023-03-16T07:14:36.505Z,13856.00
2023-03-16T07:15:36.522Z,14912.00
2023-03-16T07:16:36.540Z,15360.00
2023-03-16T07:17:36.518Z,15616.00
2023-03-16T07:18:36.462Z,15680.00
2023-03-16T07:19:36.449Z,15872.00
2023-03-16T07:20:36.434Z,15392.00
2023-03-16T07:21:36.412Z,15680.00
2023-03-16T07:22:36.402Z,13344.00
2023-03-16T07:23:36.452Z,15776.00
2023-03-16T07:24:36.379Z,15744.00
2023-03-16T07:25:36.383Z,15552.00
2023-03-16T07:26:36.361Z,15808.00
2023-03-16T07:27:36.393Z,16608.00
2023-03-16T07:28:36.328Z,16832.00
2023-03-16T07:29:36.356Z,17376.00
2023-03-16T07:30:36.299Z,16480.00
2023-03-16T07:31:36.335Z,17056.00
2023-03-16T07:32:36.336Z,17280.00
2023-03-16T07:33:36.273Z,17504.00
2023-03-16T07:34:36.273Z,17760.00
2023-03-16T07:35:36.318Z,19008.00
2023-03-16T07:36:36.220Z,18944.00
2023-03-16T07:37:36.225Z,18848.00
2023-03-16T07:38:36.229Z,19200.00
2023-03-16T07:39:36.190Z,20064.00
2023-03-16T07:40:36.181Z,20032.00
2023-03-16T07:41:36.213Z,20736.00
2023-03-16T07:42:36.141Z,21248.00
2023-03-16T07:43:36.154Z,20640.00
2023-03-16T07:44:36.131Z,20448.00
2023-03-16T07:45:36.136Z,20768.00
2023-03-16T07:46:36.092Z,21600.00
2023-03-16T07:47:36.112Z,22752.00
2023-03-16T07:48:36.077Z,24288.00
2023-03-16T07:49:36.073Z,22496.00
2023-03-16T07:50:36.048Z,24384.00
2023-03-16T07:51:36.035Z,24864.00
2023-03-16T07:52:37.564Z,26592.00
2023-03-16T07:53:36.040Z,25696.00
2023-03-16T07:54:36.024Z,25856.00
2023-03-16T07:55:36.006Z,25792.00
2023-03-16T07:56:47.807Z,25568.00
2023-03-16T07:57:35.956Z,26112.00
2023-03-16T07:58:35.966Z,24256.00
2023-03-16T07:59:35.965Z,27456.00
2023-03-16T08:00:35.938Z,28448.00
2023-03-16T08:01:35.904Z,27552.00
2023-03-16T08:02:36.056Z,27360.00
2023-03-16T08:03:35.966Z,28160.00
2023-03-16T08:04:35.861Z,28800.00
2023-03-16T08:05:35.888Z,30016.00
2023-03-16T08:06:35.872Z,29632.00
2023-03-16T08:07:35.832Z,28032.00
2023-03-16T08:08:35.838Z,29856.00
2023-03-16T08:09:36.760Z,30624.00
2023-03-16T08:10:35.795Z,30976.00
2023-03-16T08:11:35.873Z,31808.00
2023-03-16T08:12:35.841Z,32576.00
2023-03-16T08:13:35.749Z,36192.00
2023-03-16T08:14:35.746Z,36864.00
2023-03-16T08:15:35.768Z,33888.00
2023-03-16T08:16:35.727Z,34400.00
2023-03-16T08:17:35.737Z,35776.00
2023-03-16T08:18:35.704Z,37440.00
2023-03-16T08:19:35.711Z,38720.00
2023-03-16T08:20:35.688Z,37184.00
2023-03-16T08:21:48.759Z,36448.00
2023-03-16T08:22:35.650Z,37248.00
2023-03-16T08:23:35.693Z,37696.00
2023-03-16T08:24:35.625Z,37312.00
2023-03-16T08:25:35.615Z,38112.00
2023-03-16T08:26:35.608Z,39968.00
2023-03-16T08:27:35.579Z,39552.00
2023-03-16T08:28:35.674Z,37824.00
2023-03-16T08:29:35.594Z,39584.00
2023-03-16T08:30:35.561Z,40288.00
2023-03-16T08:31:35.632Z,40768.00
2023-03-16T08:32:35.551Z,41024.00
2023-03-16T08:33:35.520Z,40480.00
2023-03-16T08:34:35.499Z,39264.00
2023-03-16T08:35:35.547Z,37728.00
2023-03-16T08:36:35.507Z,38720.00
2023-03-16T08:37:35.485Z,38144.00
2023-03-16T08:38:35.497Z,36832.00
2023-03-16T08:39:35.441Z,38016.00
2023-03-16T08:40:35.437Z,39168.00
2023-03-16T08:41:35.446Z,39072.00
2023-03-16T08:42:35.421Z,37984.00
2023-03-16T08:43:35.406Z,38208.00
2023-03-16T08:44:35.384Z,39456.00
2023-03-16T08:45:35.381Z,38656.00
2023-03-16T08:46:35.393Z,39712.00
2023-03-16T08:47:35.375Z,39616.00
2023-03-16T08:48:35.339Z,41792.00
2023-03-16T08:49:35.319Z,43136.00
2023-03-16T08:50:35.350Z,43456.00
2023-03-16T08:51:35.301Z,45632.00
2023-03-16T08:52:35.267Z,47104.00
2023-03-16T08:53:35.286Z,44640.00
2023-03-16T08:54:35.261Z,44224.00
2023-03-16T08:55:35.251Z,45376.00
2023-03-16T08:56:35.245Z,44032.00
2023-03-16T08:57:35.234Z,42944.00
2023-03-16T08:58:35.223Z,42464.00
2023-03-16T08:59:35.241Z,44384.00
2023-03-16T09:00:35.205Z,45312.00
2023-03-16T09:01:35.175Z,46816.00
2023-03-16T09:02:35.166Z,46560.00
2023-03-16T09:03:35.137Z,44384.00
2023-03-16T09:04:35.152Z,45728.00
2023-03-16T09:05:35.200Z,45280.00
2023-03-16T09:06:35.111Z,42816.00
2023-03-16T09:07:35.088Z,42784.00
2023-03-16T09:08:35.091Z,45568.00
2023-03-16T09:09:35.067Z,47712.00
2023-03-16T09:10:35.070Z,48960.00
2023-03-16T09:11:35.082Z,47648.00
2023-03-16T09:12:35.027Z,46208.00
2023-03-16T09:13:35.021Z,46592.00
2023-03-16T09:14:35.013Z,44512.00
2023-03-16T09:15:35.011Z,49280.00
2023-03-16T09:16:35.001Z,40320.00
2023-03-16T09:17:35.011Z,46880.00
2023-03-16T09:18:34.960Z,48416.00
2023-03-16T09:19:49.958Z,48256.00
2023-03-16T09:20:35.333Z,46688.00
2023-03-16T09:21:34.926Z,48352.00
2023-03-16T09:22:34.923Z,51552.00
2023-03-16T09:23:34.942Z,50944.00
2023-03-16T09:24:34.885Z,51168.00
2023-03-16T09:25:34.888Z,51040.00
2023-03-16T09:26:34.911Z,52256.00
2023-03-16T09:27:34.855Z,49888.00
2023-03-16T09:28:34.844Z,51840.00
2023-03-16T09:29:34.907Z,51104.00
2023-03-16T09:30:34.824Z,55808.00
2023-03-16T09:31:34.917Z,52352.00
2023-03-16T09:32:34.814Z,54752.00
2023-03-16T09:33:34.825Z,55008.00
2023-03-16T09:34:34.771Z,58816.00
2023-03-16T09:35:35.974Z,59712.00
2023-03-16T09:36:34.752Z,59808.00
2023-03-16T09:37:44.740Z,62368.00
2023-03-16T09:38:34.764Z,61504.00
2023-03-16T09:39:34.720Z,60480.00
2023-03-16T09:40:34.707Z,61696.00
2023-03-16T09:41:34.731Z,61184.00
2023-03-16T09:42:34.674Z,59616.00
2023-03-16T09:43:34.671Z,57440.00
2023-03-16T09:44:34.678Z,58464.00
2023-03-16T09:45:34.780Z,56224.00
2023-03-16T09:46:35.826Z,55328.00
2023-03-16T09:47:34.653Z,59104.00
2023-03-16T09:48:34.604Z,59520.00
2023-03-16T09:49:34.590Z,62368.00
2023-03-16T09:50:47.261Z,61056.00
2023-03-16T09:51:34.574Z,57472.00
2023-03-16T09:52:34.557Z,56896.00
2023-03-16T09:53:34.611Z,59232.00
2023-03-16T09:54:34.594Z,55840.00
2023-03-16T09:55:34.521Z,57600.00
2023-03-16T09:56:34.560Z,58912.00
2023-03-16T09:57:34.501Z,58688.00
2023-03-16T09:58:34.523Z,56832.00
2023-03-16T09:59:34.501Z,52256.00
2023-03-16T10:00:34.467Z,49952.00
2023-03-16T10:01:34.451Z,57024.00
2023-03-16T10:02:34.441Z,63520.00
2023-03-16T10:03:34.486Z,58784.00
2023-03-16T10:04:34.444Z,58848.00
2023-03-16T10:05:34.422Z,60768.00
2023-03-16T10:06:34.384Z,60480.00
2023-03-16T10:07:34.377Z,63776.00
2023-03-16T10:08:34.410Z,62080.00
2023-03-16T10:09:34.381Z,64448.00
2023-03-16T10:10:34.346Z,62080.00
2023-03-16T10:11:34.378Z,61984.00
2023-03-16T10:12:34.332Z,65728.00
2023-03-16T10:13:34.414Z,68256.00
2023-03-16T10:14:34.349Z,68896.00
2023-03-16T10:15:34.272Z,64544.00
2023-03-16T10:16:34.293Z,62240.00
2023-03-16T10:17:34.306Z,65472.00
2023-03-16T10:18:34.314Z,63744.00
2023-03-16T10:19:34.245Z,63328.00
2023-03-16T10:20:34.245Z,62528.00
2023-03-16T10:21:34.224Z,62688.00
2023-03-16T10:22:34.190Z,58112.00
2023-03-16T10:23:34.243Z,58176.00
2023-03-16T10:24:34.199Z,58048.00
2023-03-16T10:25:34.170Z,57120.00
2023-03-16T10:26:34.164Z,57696.00
2023-03-16T10:27:34.136Z,55168.00
2023-03-16T10:28:34.180Z,56512.00
2023-03-16T10:29:34.148Z,58272.00
2023-03-16T10:30:34.124Z,56864.00
2023-03-16T10:31:34.125Z,58912.00
2023-03-16T10:32:34.160Z,60480.00
2023-03-16T10:33:34.104Z,57280.00
2023-03-16T10:34:34.054Z,58464.00
2023-03-16T10:35:34.100Z,56800.00
2023-03-16T10:36:34.113Z,55680.00
2023-03-16T10:37:34.018Z,57344.00
2023-03-16T10:38:34.165Z,60416.00
2023-03-16T10:39:34.016Z,58432.00
2023-03-16T10:40:33.990Z,56928.00
2023-03-16T10:41:34.008Z,60384.00
2023-03-16T10:42:33.967Z,59680.00
2023-03-16T10:43:33.996Z,59520.00
2023-03-16T10:44:33.958Z,56864.00
2023-03-16T10:45:33.936Z,54592.00
2023-03-16T10:46:34.013Z,56352.00
2023-03-16T10:47:34.285Z,56416.00
2023-03-16T10:48:34.257Z,53760.00
2023-03-16T10:49:34.371Z,52832.00
2023-03-16T10:50:33.867Z,51296.00
2023-03-16T10:51:33.878Z,51296.00
2023-03-16T10:52:33.853Z,46880.00
2023-03-16T10:53:33.886Z,49152.00
2023-03-16T10:54:33.856Z,50720.00
2023-03-16T10:55:33.811Z,49792.00
2023-03-16T10:56:33.836Z,48992.00
2023-03-16T10:57:33.915Z,51200.00
2023-03-16T10:58:33.842Z,51168.00
2023-03-16T10:59:33.789Z,51840.00
2023-03-16T11:00:33.748Z,50144.00
2023-03-16T11:01:33.810Z,54240.00
2023-03-16T11:02:33.735Z,56800.00
2023-03-16T11:03:33.761Z,54624.00
2023-03-16T11:04:33.806Z,57312.00
2023-03-16T11:05:33.726Z,58784.00
2023-03-16T11:06:33.697Z,55712.00
2023-03-16T11:07:33.684Z,58240.00
2023-03-16T11:08:33.682Z,59968.00
2023-03-16T11:09:33.647Z,59744.00
2023-03-16T11:10:36.200Z,57248.00
2023-03-16T11:11:33.668Z,58848.00
2023-03-16T11:12:33.623Z,60512.00
2023-03-16T11:13:33.611Z,59680.00
2023-03-16T11:14:33.605Z,61280.00
2023-03-16T11:15:33.745Z,61888.00
2023-03-16T11:16:33.606Z,61632.00
2023-03-16T11:17:33.587Z,63584.00
2023-03-16T11:18:33.553Z,63424.00
2023-03-16T11:19:33.523Z,58848.00
2023-03-16T11:20:33.521Z,57920.00
2023-03-16T11:21:33.505Z,62656.00
2023-03-16T11:22:33.521Z,62080.00
2023-03-16T11:23:33.515Z,61760.00
2023-03-16T11:24:33.474Z,61344.00
2023-03-16T11:25:33.465Z,60288.00
2023-03-16T11:26:33.465Z,58400.00
2023-03-16T11:27:33.448Z,59776.00
2023-03-16T11:28:33.437Z,61824.00
2023-03-16T11:29:33.445Z,60160.00
2023-03-16T11:30:33.394Z,60864.00
2023-03-16T11:31:33.414Z,61600.00
2023-03-16T11:32:33.472Z,62976.00
2023-03-16T11:33:33.377Z,64032.00
2023-03-16T11:34:33.362Z,63296.00
2023-03-16T11:35:33.441Z,63392.00
2023-03-16T11:36:33.389Z,61824.00
2023-03-16T11:37:33.321Z,61152.00
2023-03-16T11:38:33.320Z,60480.00
2023-03-16T11:39:33.296Z,61312.00
2023-03-16T11:40:33.290Z,61568.00
2023-03-16T11:41:33.312Z,62336.00
2023-03-16T11:42:33.262Z,60608.00
2023-03-16T11:43:33.267Z,60096.00
2023-03-16T11:44:33.252Z,60928.00
2023-03-16T11:45:33.238Z,58016.00
2023-03-16T11:46:33.350Z,60768.00
2023-03-16T11:47:33.227Z,63936.00
2023-03-16T11:48:33.201Z,63808.00
2023-03-16T11:49:33.194Z,64576.00
2023-03-16T11:50:33.181Z,62976.00
2023-03-16T11:51:33.172Z,60512.00
2023-03-16T11:52:33.164Z,63776.00
2023-03-16T11:53:33.172Z,63328.00
2023-03-16T11:54:33.128Z,60416.00
2023-03-16T11:55:33.113Z,61472.00
2023-03-16T11:56:33.116Z,58720.00
2023-03-16T11:57:33.094Z,57696.00
2023-03-16T11:58:33.075Z,58592.00
2023-03-16T11:59:33.103Z,59200.00
2023-03-16T12:00:33.058Z,61088.00
2023-03-16T12:01:33.100Z,60896.00
2023-03-16T12:02:33.182Z,58688.00
2023-03-16T12:03:33.129Z,57536.00
2023-03-16T12:04:33.028Z,57120.00
2023-03-16T12:05:33.014Z,58336.00
2023-03-16T12:06:33.004Z,58688.00
2023-03-16T12:07:32.977Z,57536.00
2023-03-16T12:08:32.957Z,58048.00
2023-03-16T12:09:32.945Z,58944.00
2023-03-16T12:10:32.926Z,58592.00
2023-03-16T12:11:32.950Z,56224.00
2023-03-16T12:12:32.926Z,56928.00
2023-03-16T12:13:32.894Z,57600.00
2023-03-16T12:14:32.881Z,58528.00
2023-03-16T12:15:32.879Z,59264.00
2023-03-16T12:16:42.813Z,57760.00
2023-03-16T12:17:32.895Z,56192.00
2023-03-16T12:18:32.869Z,54656.00
2023-03-16T12:19:32.824Z,54144.00
2023-03-16T12:20:32.810Z,53984.00
2023-03-16T12:21:32.823Z,54272.00
2023-03-16T12:22:32.794Z,53920.00
2023-03-16T12:23:32.842Z,52960.00
2023-03-16T12:24:32.768Z,52320.00
2023-03-16T12:25:32.764Z,54816.00